Time;durP1;ratioP1;P1;durP2;ratioP2;P2;SDS_P1;SDS_P2;PMS_P1;PMS_P2;Temp;Humidity;BMP_temperature;BMP_pressure;BME280_temperature;BME280_humidity;BME280_pressure;Samples;Min_cycle;Max_cycle;Signal;HPM_P1;HPM_P2
2023/04/21 00:00:51;;;;;;;4.38;3.38;;;18.00;39.00;;;;;;6207644;23;20364;-79
2023/04/21 00:03:18;;;;;;;4.10;3.28;;;17.90;38.90;;;;;;6209643;23;20005;-79
2023/04/21 00:05:45;;;;;;;4.65;3.20;;;17.90;38.90;;;;;;6182614;23;20376;-79
2023/04/21 00:08:11;;;;;;;3.95;3.08;;;17.90;38.70;;;;;;6182041;23;20539;-78
2023/04/21 00:10:37;;;;;;;5.05;3.38;;;17.90;38.80;;;;;;6209163;23;20016;-80
2023/04/21 00:13:03;;;;;;;5.25;3.80;;;17.90;38.80;;;;;;6209062;23;20502;-80
2023/04/21 00:15:29;;;;;;;4.80;3.40;;;17.80;38.70;;;;;;6183831;23;20070;-82
2023/04/21 00:17:56;;;;;;;5.38;4.05;;;17.80;38.70;;;;;;6183959;23;20017;-82
2023/04/21 00:20:22;;;;;;;5.18;3.70;;;17.80;38.70;;;;;;6184170;23;20386;-83
2023/04/21 00:22:49;;;;;;;5.65;3.67;;;17.80;38.70;;;;;;6184051;23;20016;-84
2023/04/21 00:25:15;;;;;;;6.63;4.10;;;17.80;38.70;;;;;;6210675;23;20206;-83
2023/04/21 00:27:41;;;;;;;5.65;3.70;;;17.80;38.80;;;;;;6159452;23;20142;-84
2023/04/21 00:30:08;;;;;;;5.18;3.97;;;17.80;38.80;;;;;;6185034;23;20055;-82
2023/04/21 00:32:36;;;;;;;6.75;3.80;;;17.70;38.90;;;;;;6183162;23;20364;-80
2023/04/21 00:35:02;;;;;;;4.95;3.70;;;17.70;38.90;;;;;;6182697;23;20115;-80
2023/04/21 00:37:28;;;;;;;4.38;3.70;;;17.70;38.80;;;;;;6182282;23;20040;-79
2023/04/21 00:39:54;;;;;;;5.75;4.00;;;17.70;38.70;;;;;;6209282;23;20012;-80
2023/04/21 00:42:20;;;;;;;6.53;4.10;;;17.70;38.80;;;;;;6210629;23;20012;-81
2023/04/21 00:44:46;;;;;;;5.30;4.10;;;17.70;38.90;;;;;;6183725;23;20495;-81
2023/04/21 00:47:12;;;;;;;5.18;4.15;;;17.60;38.90;;;;;;6183456;23;20020;-82
2023/04/21 00:49:38;;;;;;;5.10;3.72;;;17.70;39.00;;;;;;6183469;23;20020;-80
2023/04/21 00:52:05;;;;;;;6.35;4.22;;;17.60;38.90;;;;;;6158643;23;20051;-81
2023/04/21 00:54:34;;;;;;;5.95;3.95;;;17.60;38.90;;;;;;6209825;23;20025;-80
2023/04/21 00:57:00;;;;;;;5.80;3.95;;;17.60;38.80;;;;;;6158391;23;20380;-80
2023/04/21 00:59:27;;;;;;;4.65;3.70;;;17.60;38.70;;;;;;6182169;23;20075;-80
2023/04/21 01:01:53;;;;;;;6.20;3.88;;;17.60;38.70;;;;;;6182877;23;20020;-80
2023/04/21 01:04:20;;;;;;;8.48;3.88;;;17.50;38.60;;;;;;6209616;23;20062;-79
2023/04/21 01:06:46;;;;;;;5.15;3.90;;;17.50;38.60;;;;;;6209573;23;20573;-81
2023/04/21 01:09:12;;;;;;;3.95;3.42;;;17.50;38.60;;;;;;6209857;23;20008;-79
2023/04/21 01:11:39;;;;;;;6.00;3.75;;;17.50;38.60;;;;;;6183864;23;20540;-79
2023/04/21 01:14:06;;;;;;;4.72;3.42;;;17.50;38.60;;;;;;6185120;23;20380;-79
2023/04/21 01:16:33;;;;;;;5.65;3.53;;;17.50;38.70;;;;;;6184896;23;20472;-79
2023/04/21 01:19:04;;;;;;;6.43;3.20;;;17.50;38.60;;;;;;6185132;23;20031;-80
2023/04/21 01:21:40;;;;;;;3.88;3.33;;;17.50;38.60;;;;;;6185444;23;20017;-79
2023/04/21 01:24:06;;;;;;;4.82;3.15;;;17.50;38.60;;;;;;6160147;23;20017;-80
2023/04/21 01:26:32;;;;;;;4.20;3.33;;;17.40;38.60;;;;;;6185115;23;20021;-80
2023/04/21 01:28:58;;;;;;;4.00;3.20;;;17.50;38.70;;;;;;6184974;23;20048;-81
2023/04/21 01:31:26;;;;;;;4.80;3.25;;;17.40;38.60;;;;;;6185207;23;20046;-81
2023/04/21 01:33:52;;;;;;;4.60;3.35;;;17.40;38.60;;;;;;6184907;23;20472;-80
2023/04/21 01:36:18;;;;;;;4.18;3.13;;;17.40;38.60;;;;;;6186048;23;20042;-81
2023/04/21 01:38:44;;;;;;;4.25;3.33;;;17.40;38.60;;;;;;6185320;23;20020;-82
2023/04/21 01:41:11;;;;;;;5.35;3.00;;;17.40;38.60;;;;;;6136490;23;20020;-82
2023/04/21 01:43:37;;;;;;;5.15;3.17;;;17.40;38.70;;;;;;6184843;23;20024;-82
2023/04/21 01:46:04;;;;;;;4.65;3.10;;;17.30;38.60;;;;;;6160507;23;20091;-82
2023/04/21 01:48:30;;;;;;;4.43;3.28;;;17.30;38.60;;;;;;6185632;23;20013;-79
2023/04/21 01:50:58;;;;;;;3.80;3.08;;;17.30;38.60;;;;;;6212076;23;20013;-82
2023/04/21 01:53:25;;;;;;;5.68;3.33;;;17.30;38.70;;;;;;6212023;23;20344;-82
2023/04/21 01:55:51;;;;;;;4.40;3.25;;;17.30;38.80;;;;;;6160364;23;20083;-80
2023/04/21 01:58:17;;;;;;;7.32;3.13;;;17.30;38.80;;;;;;6185309;23;20023;-81
2023/04/21 02:00:44;;;;;;;3.60;2.85;;;17.30;38.80;;;;;;6184831;23;20013;-81
2023/04/21 02:03:10;;;;;;;3.15;2.67;;;17.30;39.00;;;;;;6212789;23;20058;-81
2023/04/21 02:05:37;;;;;;;3.70;3.05;;;17.30;39.00;;;;;;6185197;23;20048;-81
2023/04/21 02:08:03;;;;;;;4.15;3.20;;;17.20;39.10;;;;;;6211857;23;20016;-81
2023/04/21 02:10:29;;;;;;;3.33;2.88;;;17.20;39.10;;;;;;6184961;23;20143;-82
2023/04/21 02:12:54;;;;;;;3.80;3.15;;;17.20;39.20;;;;;;6184736;23;20016;-82
2023/04/21 02:15:20;;;;;;;3.95;3.08;;;17.20;39.20;;;;;;6185542;23;20020;-82
2023/04/21 02:17:46;;;;;;;3.10;2.70;;;17.20;39.10;;;;;;6185459;23;20035;-82
2023/04/21 02:20:12;;;;;;;3.33;2.60;;;17.20;39.20;;;;;;6193298;23;20021;-80
2023/04/21 02:22:39;;;;;;;3.83;3.00;;;17.20;39.20;;;;;;6215558;23;20040;-81
2023/04/21 02:25:05;;;;;;;4.47;3.42;;;17.20;39.30;;;;;;6184227;23;20019;-82
2023/04/21 02:27:31;;;;;;;4.63;2.88;;;17.20;39.30;;;;;;6184573;23;20039;-81
2023/04/21 02:29:58;;;;;;;4.07;2.80;;;17.10;39.20;;;;;;6185268;23;20221;-85
2023/04/21 02:32:24;;;;;;;3.33;2.72;;;17.10;39.40;;;;;;6160546;23;20028;-83
2023/04/21 02:34:50;;;;;;;5.10;2.70;;;17.10;39.30;;;;;;6160521;23;20021;-84
2023/04/21 02:37:16;;;;;;;4.25;2.70;;;17.10;39.30;;;;;;6184943;23;20464;-86
2023/04/21 02:39:42;;;;;;;3.75;2.78;;;17.10;39.30;;;;;;6134953;23;20047;-84
2023/04/21 02:42:08;;;;;;;3.10;2.80;;;17.10;39.40;;;;;;6160077;23;20048;-83
2023/04/21 02:44:37;;;;;;;3.17;2.70;;;17.10;39.40;;;;;;6159173;23;20059;-82
2023/04/21 02:47:03;;;;;;;5.03;2.80;;;17.00;39.40;;;;;;6184336;23;20078;-83
2023/04/21 02:49:29;;;;;;;4.13;2.67;;;17.00;39.30;;;;;;6209843;23;20607;-80
2023/04/21 02:51:57;;;;;;;3.50;2.85;;;17.00;39.30;;;;;;6209921;23;20024;-80
2023/04/21 02:54:23;;;;;;;4.30;2.75;;;17.00;39.40;;;;;;6183911;23;20020;-80
2023/04/21 02:56:49;;;;;;;4.22;2.60;;;17.00;39.40;;;;;;6183523;23;20364;-81
2023/04/21 02:59:15;;;;;;;4.90;2.72;;;17.00;39.50;;;;;;6154974;23;20363;-79
2023/04/21 03:01:41;;;;;;;6.15;2.90;;;17.00;39.60;;;;;;6182685;23;20027;-79
2023/04/21 03:04:07;;;;;;;4.38;2.70;;;17.00;39.70;;;;;;6183021;23;20016;-79
2023/04/21 03:06:33;;;;;;;3.92;2.90;;;17.00;39.70;;;;;;6183417;23;20055;-79
2023/04/21 03:08:59;;;;;;;4.32;2.83;;;17.00;39.80;;;;;;6208987;23;20103;-79
2023/04/21 03:11:25;;;;;;;4.68;2.70;;;17.00;39.90;;;;;;6209336;23;20055;-79
2023/04/21 03:13:52;;;;;;;5.80;3.05;;;17.00;39.90;;;;;;6182677;23;20028;-79
2023/04/21 03:16:18;;;;;;;4.15;3.05;;;17.00;39.90;;;;;;6182424;23;20066;-79
2023/04/21 03:18:44;;;;;;;4.28;3.15;;;16.90;39.90;;;;;;6209429;23;20102;-79
2023/04/21 03:21:11;;;;;;;4.28;2.83;;;17.00;40.00;;;;;;6158452;23;20008;-79
2023/04/21 03:23:37;;;;;;;4.25;2.90;;;16.90;40.00;;;;;;6182393;23;20031;-80
2023/04/21 03:26:07;;;;;;;5.90;2.60;;;16.90;40.00;;;;;;6157807;23;20475;-80
2023/04/21 03:28:34;;;;;;;4.03;2.60;;;16.90;40.00;;;;;;6182357;23;20047;-81
2023/04/21 03:31:02;;;;;;;4.90;2.70;;;16.90;40.10;;;;;;6183429;23;20348;-81
2023/04/21 03:33:28;;;;;;;6.60;2.72;;;16.90;40.10;;;;;;6209980;23;20419;-83
2023/04/21 03:35:54;;;;;;;5.75;3.28;;;16.90;40.00;;;;;;6157788;23;20020;-85
2023/04/21 03:38:20;;;;;;;5.22;2.78;;;16.90;40.10;;;;;;6182921;23;20044;-84
2023/04/21 03:40:46;;;;;;;4.40;2.60;;;16.90;40.20;;;;;;6182809;23;20017;-78
2023/04/21 03:43:12;;;;;;;6.15;3.30;;;16.90;40.40;;;;;;6175374;23;20542;-77
2023/04/21 03:45:38;;;;;;;6.10;2.72;;;16.90;40.40;;;;;;6181004;23;20463;-77
2023/04/21 03:48:04;;;;;;;5.10;3.45;;;16.90;40.70;;;;;;6181657;23;20012;-77
2023/04/21 03:50:30;;;;;;;4.20;3.00;;;16.90;40.70;;;;;;6181377;23;20024;-76
2023/04/21 03:52:56;;;;;;;4.28;2.63;;;16.90;40.70;;;;;;6207610;23;20031;-77
2023/04/21 03:55:22;;;;;;;6.88;2.55;;;16.90;40.60;;;;;;6207480;23;20028;-77
2023/04/21 03:57:48;;;;;;;4.72;2.75;;;16.90;40.50;;;;;;6207645;23;20067;-77
2023/04/21 04:00:14;;;;;;;6.07;2.90;;;16.90;40.50;;;;;;6205781;23;20055;-77
2023/04/21 04:02:40;;;;;;;3.35;2.47;;;17.00;40.50;;;;;;6181119;23;20467;-77
2023/04/21 04:05:07;;;;;;;3.97;3.03;;;16.90;40.40;;;;;;6205965;23;20021;-79
2023/04/21 04:07:33;;;;;;;3.80;2.70;;;17.00;40.40;;;;;;6207348;23;20021;-78
2023/04/21 04:09:59;;;;;;;4.28;3.17;;;16.90;40.30;;;;;;6182047;23;20341;-78
2023/04/21 04:12:25;;;;;;;5.72;3.00;;;16.90;40.20;;;;;;6183064;23;20015;-78
2023/04/21 04:14:51;;;;;;;4.90;2.80;;;16.90;40.10;;;;;;6180628;23;20436;-77
2023/04/21 04:17:17;;;;;;;4.95;3.08;;;16.90;40.00;;;;;;6180823;23;20024;-77
2023/04/21 04:19:43;;;;;;;5.32;2.80;;;16.90;40.00;;;;;;6207928;23;20455;-79
2023/04/21 04:22:09;;;;;;;5.55;2.90;;;16.90;40.00;;;;;;6181701;23;20103;-77
2023/04/21 04:24:35;;;;;;;3.63;2.58;;;16.90;40.00;;;;;;6182330;23;20012;-77
2023/04/21 04:27:02;;;;;;;5.07;2.22;;;16.90;40.10;;;;;;6182247;23;20020;-78
2023/04/21 04:29:28;;;;;;;3.40;2.60;;;16.90;40.10;;;;;;6181713;23;20032;-76
2023/04/21 04:31:55;;;;;;;3.20;2.50;;;17.00;40.30;;;;;;6181763;23;20147;-79
2023/04/21 04:34:22;;;;;;;3.50;2.53;;;17.00;40.30;;;;;;6132211;23;20062;-76
2023/04/21 04:36:49;;;;;;;3.17;2.20;;;17.10;40.30;;;;;;6209741;23;20486;-82
2023/04/21 04:39:18;;;;;;;4.25;2.63;;;17.10;40.20;;;;;;6182469;23;20008;-79
2023/04/21 04:41:43;;;;;;;5.22;2.47;;;17.30;40.50;;;;;;6182359;23;20021;-71
2023/04/21 04:44:10;;;;;;;5.07;2.70;;;17.40;41.50;;;;;;6208133;23;20494;-73
2023/04/21 04:46:36;;;;;;;6.38;3.80;;;17.50;42.80;;;;;;6207928;23;20016;-72
2023/04/21 04:49:02;;;;;;;8.57;4.10;;;17.70;43.40;;;;;;6208503;23;20364;-73
2023/04/21 04:51:28;;;;;;;7.35;4.80;;;17.80;43.60;;;;;;6208669;23;20070;-72
2023/04/21 04:53:54;;;;;;;10.50;4.80;;;18.00;43.80;;;;;;6208129;23;20033;-72
2023/04/21 04:56:20;;;;;;;8.75;4.47;;;18.10;43.90;;;;;;6207920;23;20423;-75
2023/04/21 04:58:46;;;;;;;6.35;3.72;;;18.30;44.00;;;;;;6209107;23;20519;-75
2023/04/21 05:01:14;;;;;;;8.73;3.95;;;18.40;43.50;;;;;;6180246;23;20047;-74
2023/04/21 05:03:41;;;;;;;7.50;3.75;;;18.60;43.50;;;;;;6207736;23;20047;-75
2023/04/21 05:06:08;;;;;;;5.18;3.88;;;18.80;43.00;;;;;;6208444;23;20015;-74
2023/04/21 05:08:35;;;;;;;7.75;3.60;;;18.90;42.10;;;;;;6207394;23;20630;-74
2023/04/21 05:11:01;;;;;;;7.53;3.30;;;19.10;41.70;;;;;;6156549;23;20527;-75
2023/04/21 05:13:27;;;;;;;4.30;3.13;;;19.20;40.40;;;;;;6208253;23;20021;-75
2023/04/21 05:15:57;;;;;;;3.78;2.67;;;19.20;40.50;;;;;;6207330;23;20019;-75
2023/04/21 05:18:23;;;;;;;4.22;2.88;;;19.40;40.30;;;;;;6207689;23;20013;-75
2023/04/21 05:20:49;;;;;;;3.03;2.67;;;19.50;40.20;;;;;;6207345;23;20021;-73
2023/04/21 05:23:15;;;;;;;5.13;2.90;;;19.60;39.80;;;;;;6207444;23;20044;-72
2023/04/21 05:25:41;;;;;;;3.60;2.65;;;19.70;39.40;;;;;;6207456;23;20032;-72
2023/04/21 05:28:07;;;;;;;6.03;2.60;;;19.80;39.10;;;;;;6208309;23;20075;-73
2023/04/21 05:30:33;;;;;;;3.65;2.67;;;20.00;38.80;;;;;;6208212;23;20066;-73
2023/04/21 05:32:59;;;;;;;6.30;2.72;;;20.10;38.50;;;;;;6181111;23;20017;-72
2023/04/21 05:35:25;;;;;;;4.72;2.45;;;20.20;38.00;;;;;;6207942;23;20359;-72
2023/04/21 05:37:51;;;;;;;5.32;2.47;;;20.30;37.90;;;;;;6207593;23;20222;-73
2023/04/21 05:40:17;;;;;;;4.18;2.42;;;20.40;37.60;;;;;;6208055;23;20017;-72
2023/04/21 05:42:42;;;;;;;4.05;2.60;;;20.50;37.30;;;;;;6208013;23;20352;-73
2023/04/21 05:45:08;;;;;;;2.53;2.03;;;20.60;36.90;;;;;;6208315;23;20008;-72
2023/04/21 05:47:34;;;;;;;2.45;2.17;;;20.70;36.20;;;;;;6208272;23;20028;-73
2023/04/21 05:50:00;;;;;;;3.15;2.17;;;20.80;35.60;;;;;;6208234;23;20491;-74
2023/04/21 05:52:26;;;;;;;2.35;2.08;;;20.90;35.90;;;;;;6208022;23;20195;-73
2023/04/21 05:54:52;;;;;;;4.18;2.13;;;21.00;36.00;;;;;;6207471;23;20020;-74
2023/04/21 05:57:18;;;;;;;2.63;2.05;;;21.00;35.40;;;;;;6208079;23;20008;-72
2023/04/21 05:59:44;;;;;;;5.13;2.30;;;21.10;34.50;;;;;;6208512;23;20520;-72
2023/04/21 06:02:11;;;;;;;2.45;2.08;;;21.20;34.30;;;;;;6209335;23;20089;-71
2023/04/21 06:04:37;;;;;;;2.10;1.90;;;21.30;34.10;;;;;;6209672;23;20376;-71
2023/04/21 06:07:12;;;;;;;2.90;1.95;;;21.40;33.80;;;;;;6209245;23;20036;-71
2023/04/21 06:09:38;;;;;;;;;;;21.40;33.70;;;;;;6210390;23;20009;-71
2023/04/21 06:12:04;;;;;;;3.60;1.98;;;21.50;33.90;;;;;;6182684;23;19919;-71
2023/04/21 06:14:31;;;;;;;1.92;1.73;;;21.60;32.60;;;;;;6209432;23;20048;-71
2023/04/21 06:16:57;;;;;;;3.35;2.00;;;21.70;32.50;;;;;;6209525;23;20023;-71
2023/04/21 06:19:23;;;;;;;2.95;1.80;;;21.70;32.70;;;;;;6209107;23;20099;-72
2023/04/21 06:21:49;;;;;;;2.97;1.70;;;21.80;32.90;;;;;;6209177;23;20090;-70
2023/04/21 06:24:15;;;;;;;1.73;1.63;;;21.90;32.70;;;;;;6209677;23;20032;-71
2023/04/21 06:26:41;;;;;;;2.15;1.65;;;22.00;32.70;;;;;;6209471;23;20095;-72
2023/04/21 06:29:07;;;;;;;2.40;1.80;;;22.10;32.70;;;;;;6209487;23;20047;-72
2023/04/21 06:31:33;;;;;;;1.90;1.70;;;22.20;32.30;;;;;;6182268;23;20411;-70
2023/04/21 06:33:59;;;;;;;3.72;1.80;;;22.30;32.40;;;;;;6209058;23;20021;-74
2023/04/21 06:36:26;;;;;;;2.88;1.70;;;22.40;32.30;;;;;;6210021;23;20021;-72
2023/04/21 06:38:52;;;;;;;2.17;1.40;;;22.40;32.30;;;;;;6209458;23;20020;-72
2023/04/21 06:41:18;;;;;;;2.42;1.60;;;22.40;31.80;;;;;;6209186;23;20066;-72
2023/04/21 06:43:44;;;;;;;2.38;1.52;;;22.50;32.00;;;;;;6182616;23;20027;-72
2023/04/21 06:46:10;;;;;;;1.88;1.40;;;22.50;31.40;;;;;;6209223;23;20020;-73
2023/04/21 06:48:36;;;;;;;2.00;1.35;;;22.60;31.30;;;;;;6209194;23;20452;-73
2023/04/21 06:51:01;;;;;;;3.25;1.23;;;22.60;31.30;;;;;;6209332;23;20031;-74
2023/04/21 06:53:30;;;;;;;1.80;1.20;;;22.60;30.60;;;;;;6208856;23;20094;-75
2023/04/21 06:55:56;;;;;;;2.15;1.35;;;22.60;30.60;;;;;;6209028;23;20028;-73
2023/04/21 06:58:22;;;;;;;1.80;1.63;;;22.60;30.70;;;;;;6209080;23;20108;-75
2023/04/21 07:00:49;;;;;;;2.13;1.40;;;22.60;30.60;;;;;;6208889;23;20459;-74
2023/04/21 07:03:15;;;;;;;1.20;1.10;;;22.60;30.90;;;;;;6209531;23;20040;-72
2023/04/21 07:05:41;;;;;;;1.38;1.27;;;22.60;31.00;;;;;;6208908;23;20051;-73
2023/04/21 07:08:06;;;;;;;2.10;1.25;;;22.60;30.90;;;;;;6182653;23;20381;-77
2023/04/21 07:10:32;;;;;;;3.25;1.33;;;22.70;30.90;;;;;;6208509;23;20020;-74
2023/04/21 07:12:58;;;;;;;1.92;1.38;;;22.70;30.70;;;;;;6208464;23;20047;-72
2023/04/21 07:15:24;;;;;;;1.85;1.50;;;22.70;30.70;;;;;;6209383;23;20047;-74
2023/04/21 07:17:50;;;;;;;1.48;1.27;;;22.70;31.20;;;;;;6181658;23;20536;-72
2023/04/21 07:20:17;;;;;;;2.78;1.50;;;22.70;31.00;;;;;;6208609;23;20043;-74
2023/04/21 07:22:43;;;;;;;1.45;1.27;;;22.70;31.00;;;;;;6208613;23;20021;-76
2023/04/21 07:25:10;;;;;;;1.75;1.35;;;22.80;30.80;;;;;;6208079;23;20382;-72
2023/04/21 07:27:36;;;;;;;3.22;1.20;;;22.80;30.80;;;;;;6209187;23;20004;-74
2023/04/21 07:30:03;;;;;;;1.45;1.30;;;22.80;31.40;;;;;;6208459;23;20028;-74
2023/04/21 07:32:30;;;;;;;3.78;1.48;;;22.90;31.10;;;;;;6208036;23;20027;-73
2023/04/21 07:34:56;;;;;;;2.03;1.27;;;22.90;30.60;;;;;;6208568;23;20032;-76
2023/04/21 07:37:22;;;;;;;1.88;1.42;;;22.90;30.80;;;;;;6208772;23;20369;-74
2023/04/21 07:39:48;;;;;;;2.35;1.20;;;22.90;30.80;;;;;;6207817;23;20016;-77
2023/04/21 07:42:14;;;;;;;1.85;1.40;;;22.90;30.70;;;;;;6209216;23;20492;-76
2023/04/21 07:44:40;;;;;;;1.38;1.27;;;22.90;31.40;;;;;;6208659;23;20345;-77
2023/04/21 07:47:06;;;;;;;1.98;1.50;;;22.90;31.50;;;;;;6208490;23;20021;-78
2023/04/21 07:49:31;;;;;;;1.58;1.42;;;22.90;32.20;;;;;;6208037;23;20464;-74
2023/04/21 07:51:57;;;;;;;1.00;1.00;;;23.00;33.20;;;;;;6208546;23;20047;-72
2023/04/21 07:54:23;;;;;;;1.77;1.35;;;23.00;33.10;;;;;;6208714;23;20024;-71
2023/04/21 07:56:49;;;;;;;1.95;1.10;;;23.00;33.50;;;;;;6207738;23;20016;-71
2023/04/21 07:59:15;;;;;;;1.67;1.20;;;23.00;33.20;;;;;;6208527;23;20026;-71
2023/04/21 08:01:41;;;;;;;2.67;1.52;;;23.00;33.50;;;;;;6208313;23;20020;-71
2023/04/21 08:04:08;;;;;;;4.20;1.35;;;23.00;32.60;;;;;;6208072;23;20013;-72
2023/04/21 08:06:33;;;;;;;1.35;1.10;;;22.90;32.00;;;;;;6208605;23;20023;-72
2023/04/21 08:08:59;;;;;;;5.25;1.60;;;22.80;32.60;;;;;;6207913;23;20110;-72
2023/04/21 08:11:27;;;;;;;1.17;1.08;;;22.80;33.70;;;;;;6208088;23;20024;-72
2023/04/21 08:13:53;;;;;;;3.10;1.23;;;22.80;34.20;;;;;;6207423;23;20403;-72
2023/04/21 08:16:19;;;;;;;2.75;1.52;;;22.70;34.30;;;;;;6207925;23;20091;-72
2023/04/21 08:18:45;;;;;;;2.92;1.30;;;22.70;34.50;;;;;;6207904;23;20067;-72
2023/04/21 08:21:11;;;;;;;1.63;1.30;;;22.70;34.90;;;;;;6208317;23;20372;-72
2023/04/21 08:23:37;;;;;;;2.25;1.42;;;22.70;35.60;;;;;;6207919;23;20024;-72
2023/04/21 08:26:03;;;;;;;1.65;1.35;;;22.70;35.20;;;;;;6208025;23;20028;-72
2023/04/21 08:28:29;;;;;;;2.63;1.20;;;22.70;34.50;;;;;;6207752;23;20020;-74
2023/04/21 08:30:55;;;;;;;2.72;1.30;;;22.70;34.50;;;;;;6208263;23;20020;-72
2023/04/21 08:33:21;;;;;;;1.52;1.02;;;22.70;34.40;;;;;;6208311;23;20016;-71
2023/04/21 08:35:47;;;;;;;2.33;1.00;;;22.60;33.40;;;;;;6208142;23;20059;-72
2023/04/21 08:38:13;;;;;;;2.28;1.00;;;22.50;33.90;;;;;;6207731;23;20091;-72
2023/04/21 08:40:39;;;;;;;1.10;0.95;;;22.50;34.60;;;;;;6181839;23;20039;-71
2023/04/21 08:43:06;;;;;;;1.77;1.10;;;22.50;35.20;;;;;;6208037;23;20051;-72
2023/04/21 08:45:33;;;;;;;1.48;1.20;;;22.50;35.80;;;;;;6208307;23;20040;-72
2023/04/21 08:48:00;;;;;;;0.95;0.85;;;22.50;36.60;;;;;;6208296;23;20044;-72
2023/04/21 08:50:28;;;;;;;3.53;1.20;;;22.50;36.30;;;;;;6208105;23;20025;-72
2023/04/21 08:52:55;;;;;;;1.25;0.93;;;22.50;35.50;;;;;;6208160;23;20024;-72
2023/04/21 08:55:27;;;;;;;2.13;0.90;;;22.50;36.20;;;;;;6207815;23;20035;-73
2023/04/21 08:57:53;;;;;;;1.90;0.80;;;22.50;34.70;;;;;;6207894;23;20448;-73
2023/04/21 09:00:20;;;;;;;1.42;0.80;;;22.50;34.10;;;;;;6208560;23;20013;-73
2023/04/21 09:02:54;;;;;;;1.50;0.85;;;22.40;34.20;;;;;;6208111;23;20419;-73
2023/04/21 09:05:31;;;;;;;1.33;1.00;;;22.30;34.80;;;;;;6207894;23;20016;-72
2023/04/21 09:08:17;;;;;;;0.80;0.80;;;22.30;35.00;;;;;;6207832;23;20017;-72
2023/04/21 09:10:51;;;;;;;1.75;1.10;;;22.30;35.30;;;;;;6207932;23;20420;-72
2023/04/21 09:13:18;;;;;;;0.80;0.75;;;22.20;35.90;;;;;;6207931;23;20191;-72
2023/04/21 09:15:50;;;;;;;1.02;0.80;;;22.20;36.20;;;;;;6207731;23;20013;-72
2023/04/21 09:18:18;;;;;;;1.23;1.13;;;22.30;36.30;;;;;;6181407;23;20356;-73
2023/04/21 09:20:46;;;;;;;2.83;1.00;;;22.30;35.50;;;;;;6181524;23;20020;-72
2023/04/21 09:23:12;;;;;;;1.95;0.90;;;22.20;35.60;;;;;;6207624;23;20495;-72
2023/04/21 09:25:39;;;;;;;0.82;0.80;;;22.20;35.30;;;;;;6208028;23;20017;-72
2023/04/21 09:28:10;;;;;;;2.40;0.82;;;22.20;35.40;;;;;;6208219;23;20016;-73
2023/04/21 09:30:37;;;;;;;1.00;0.90;;;22.10;34.70;;;;;;6208699;23;20012;-73
2023/04/21 09:33:03;;;;;;;1.27;1.00;;;22.10;35.00;;;;;;6207757;23;20013;-73
2023/04/21 09:35:33;;;;;;;1.70;1.17;;;22.10;34.90;;;;;;6209638;23;20024;-72
2023/04/21 09:38:01;;;;;;;1.00;1.00;;;22.00;35.50;;;;;;6209880;23;20012;-73
2023/04/21 09:40:29;;;;;;;2.30;1.33;;;22.00;34.70;;;;;;6209722;23;20461;-73
2023/04/21 09:42:55;;;;;;;1.20;0.90;;;22.00;35.00;;;;;;6209598;23;20013;-73
2023/04/21 09:45:26;;;;;;;2.67;0.93;;;22.00;35.20;;;;;;6210092;23;20036;-73
2023/04/21 09:47:56;;;;;;;2.17;0.80;;;21.90;34.60;;;;;;6209170;23;20020;-72
2023/04/21 09:50:23;;;;;;;0.77;0.77;;;21.90;34.90;;;;;;6209536;23;20548;-73
2023/04/21 09:52:53;;;;;;;1.58;0.93;;;21.90;34.90;;;;;;6182968;23;20024;-72
2023/04/21 09:55:25;;;;;;;1.05;0.95;;;21.80;35.00;;;;;;6209227;23;20029;-72
2023/04/21 09:57:56;;;;;;;0.75;0.75;;;21.80;35.00;;;;;;6182765;23;20407;-73
2023/04/21 10:00:26;;;;;;;0.70;0.70;;;21.80;35.20;;;;;;6210198;23;20482;-72
2023/04/21 10:02:53;;;;;;;1.77;0.90;;;21.80;35.60;;;;;;6208790;23;20106;-73
2023/04/21 10:05:19;;;;;;;1.02;0.70;;;21.80;35.70;;;;;;6209690;23;20405;-73
2023/04/21 10:07:46;;;;;;;1.67;0.80;;;21.80;34.90;;;;;;6209921;23;20020;-73
2023/04/21 10:10:24;;;;;;;1.27;0.85;;;21.80;35.20;;;;;;6182226;23;20028;-73
2023/04/21 10:12:51;;;;;;;0.80;0.80;;;21.80;35.10;;;;;;6208937;23;20325;-73
2023/04/21 10:15:36;;;;;;;0.98;0.60;;;21.80;34.90;;;;;;6209813;23;20043;-72
2023/04/21 10:18:15;;;;;;;1.45;0.90;;;21.70;34.90;;;;;;6209323;23;20031;-73
2023/04/21 10:20:52;;;;;;;3.00;0.80;;;21.70;34.80;;;;;;6183021;23;20067;-72
2023/04/21 10:23:37;;;;;;;1.95;1.20;;;21.70;35.00;;;;;;6209166;23;20017;-73
2023/04/21 10:26:10;;;;;;;1.52;0.85;;;21.70;35.20;;;;;;6209428;23;20016;-73
2023/04/21 10:28:46;;;;;;;2.80;1.10;;;21.70;35.50;;;;;;6209217;23;20049;-72
2023/04/21 10:31:51;;;;;;;1.90;0.90;;;21.70;34.80;;;;;;6209283;23;20019;-71
2023/04/21 10:34:19;;;;;;;0.65;0.63;;;21.70;34.50;;;;;;6208991;23;20024;-72
2023/04/21 10:36:45;;;;;;;0.80;0.80;;;21.70;35.30;;;;;;6209041;23;20020;-72
2023/04/21 10:39:27;;;;;;;1.25;0.60;;;21.70;35.60;;;;;;6209599;23;20103;-72
2023/04/21 10:42:19;;;;;;;1.05;0.70;;;21.70;35.90;;;;;;6209208;23;20436;-72
2023/04/21 10:44:52;;;;;;;0.98;0.60;;;21.70;36.50;;;;;;6208841;23;20127;-74
2023/04/21 10:47:29;;;;;;;1.20;0.80;;;21.80;35.50;;;;;;6209240;23;20020;-72
2023/04/21 10:49:57;;;;;;;0.85;0.80;;;21.80;35.20;;;;;;6209092;23;20027;-72
2023/04/21 10:52:32;;;;;;;1.40;0.90;;;21.80;34.90;;;;;;6209116;23;20472;-72
2023/04/21 10:54:58;;;;;;;0.68;0.63;;;21.70;34.30;;;;;;6208519;23;20456;-72
2023/04/21 10:57:24;;;;;;;0.60;0.60;;;21.70;34.10;;;;;;6209673;23;20023;-72
2023/04/21 10:59:50;;;;;;;1.67;0.73;;;21.70;33.80;;;;;;6207949;23;20454;-72
2023/04/21 11:02:19;;;;;;;3.25;0.90;;;21.70;34.10;;;;;;6208212;23;20016;-72
2023/04/21 11:04:50;;;;;;;0.85;0.80;;;21.60;33.90;;;;;;6208932;23;20016;-73
2023/04/21 11:07:18;;;;;;;1.90;0.80;;;21.60;33.80;;;;;;6208305;23;20020;-72
2023/04/21 11:09:46;;;;;;;1.17;0.85;;;21.60;34.10;;;;;;6208735;23;20016;-72
2023/04/21 11:12:17;;;;;;;1.98;1.02;;;21.60;34.00;;;;;;6209543;23;20036;-72
2023/04/21 11:14:48;;;;;;;0.70;0.70;;;21.50;34.00;;;;;;6207839;23;20024;-71
2023/04/21 11:17:16;;;;;;;1.25;0.80;;;21.50;33.90;;;;;;6208434;23;20039;-72
2023/04/21 11:20:03;;;;;;;1.98;0.80;;;21.50;33.60;;;;;;6208771;23;20020;-73
2023/04/21 11:22:29;;;;;;;2.40;1.00;;;21.50;33.90;;;;;;6181549;23;20357;-71
2023/04/21 11:24:56;;;;;;;0.82;0.68;;;21.50;34.50;;;;;;6209380;23;20348;-73
2023/04/21 11:27:25;;;;;;;2.15;0.93;;;21.50;34.30;;;;;;6211841;23;20039;-71
2023/04/21 11:29:51;;;;;;;2.05;0.70;;;21.50;34.20;;;;;;6185116;23;20025;-74
2023/04/21 11:32:17;;;;;;;2.30;0.80;;;21.40;34.00;;;;;;6184538;23;20432;-74
2023/04/21 11:34:44;;;;;;;1.13;0.70;;;21.50;34.00;;;;;;6183681;23;20040;-74
2023/04/21 11:37:25;;;;;;;3.60;0.80;;;21.50;33.70;;;;;;6211930;23;20016;-73
2023/04/21 11:40:01;;;;;;;2.05;0.90;;;21.40;33.50;;;;;;6185016;23;20472;-74
2023/04/21 11:42:28;;;;;;;0.70;0.70;;;21.40;33.60;;;;;;6210864;23;20047;-73
2023/04/21 11:44:55;;;;;;;1.65;0.90;;;21.40;32.90;;;;;;6211495;23;20372;-74
2023/04/21 11:47:26;;;;;;;1.48;0.98;;;21.40;31.90;;;;;;6185252;23;20055;-72
2023/04/21 11:49:54;;;;;;;1.70;0.90;;;21.30;32.00;;;;;;6210481;23;20024;-73
2023/04/21 11:52:27;;;;;;;2.78;1.23;;;21.20;31.40;;;;;;6211728;23;20020;-72
2023/04/21 11:54:56;;;;;;;1.63;1.08;;;21.20;31.30;;;;;;6210881;23;20021;-72
2023/04/21 11:57:24;;;;;;;2.35;1.00;;;21.10;31.70;;;;;;6185431;23;20016;-72
2023/04/21 11:59:50;;;;;;;2.17;1.10;;;21.10;32.10;;;;;;6185136;23;20074;-72
2023/04/21 12:02:25;;;;;;;2.22;1.00;;;21.00;31.80;;;;;;6210420;23;20514;-73
2023/04/21 12:04:59;;;;;;;2.47;1.05;;;21.00;32.20;;;;;;6208044;23;20024;-74
2023/04/21 12:07:25;;;;;;;2.58;0.90;;;20.90;31.90;;;;;;6181708;23;20075;-73
2023/04/21 12:09:52;;;;;;;2.42;1.10;;;20.90;32.10;;;;;;6208007;23;20008;-75
2023/04/21 12:12:18;;;;;;;2.25;1.10;;;20.90;32.30;;;;;;6182385;23;20131;-74
2023/04/21 12:14:44;;;;;;;1.63;1.05;;;20.80;32.60;;;;;;6208533;23;20016;-75
2023/04/21 12:17:10;;;;;;;1.65;0.90;;;20.80;33.00;;;;;;6208476;23;20520;-76
2023/04/21 12:19:39;;;;;;;2.35;1.17;;;20.90;33.70;;;;;;6207887;23;20300;-76
2023/04/21 12:22:10;;;;;;;2.00;0.93;;;20.90;33.60;;;;;;6208204;23;20018;-74
2023/04/21 12:24:37;;;;;;;1.88;0.90;;;20.90;32.70;;;;;;6208847;23;20014;-75
2023/04/21 12:27:03;;;;;;;1.33;0.98;;;20.90;32.20;;;;;;6208482;23;20464;-73
2023/04/21 12:29:29;;;;;;;1.80;1.00;;;20.80;31.90;;;;;;6208604;23;20021;-74
2023/04/21 12:31:55;;;;;;;1.92;1.10;;;20.80;31.90;;;;;;6208303;23;20054;-74
2023/04/21 12:34:21;;;;;;;1.10;0.95;;;20.70;31.80;;;;;;6181438;23;20063;-74
2023/04/21 12:36:47;;;;;;;1.60;1.05;;;20.60;31.70;;;;;;6181434;23;20020;-74
2023/04/21 12:39:16;;;;;;;2.30;1.08;;;20.60;32.00;;;;;;6208310;23;20403;-75
2023/04/21 12:41:41;;;;;;;2.38;1.00;;;20.60;32.20;;;;;;6208467;23;20020;-75
2023/04/21 12:44:07;;;;;;;1.25;1.00;;;20.60;32.40;;;;;;6208617;23;20364;-75
2023/04/21 12:46:34;;;;;;;0.90;0.90;;;20.60;32.80;;;;;;6208128;23;20020;-74
2023/04/21 12:48:59;;;;;;;1.98;1.10;;;20.60;33.00;;;;;;6208373;23;20040;-75